createdAt,value
2023-01-19T00:00:46.896Z,6.35
2023-01-19T00:03:13.402Z,5.95
2023-01-19T00:05:40.124Z,7.68
2023-01-19T00:08:06.619Z,8.85
2023-01-19T00:10:33.136Z,7.43
2023-01-19T00:12:59.979Z,7.50
2023-01-19T00:15:26.635Z,8.05
2023-01-19T00:17:54.484Z,8.13
2023-01-19T00:20:21.028Z,7.32
2023-01-19T00:22:47.596Z,8.30
2023-01-19T00:25:14.162Z,7.72
2023-01-19T00:27:40.675Z,7.88
2023-01-19T00:30:08.558Z,6.70
2023-01-19T00:32:35.063Z,5.72
2023-01-19T00:35:03.037Z,6.07
2023-01-19T00:37:29.540Z,5.93
2023-01-19T00:39:56.060Z,5.25
2023-01-19T00:42:22.597Z,4.68
2023-01-19T00:44:49.100Z,5.40
2023-01-19T00:47:15.662Z,5.35
2023-01-19T00:49:43.161Z,4.90
2023-01-19T00:52:11.026Z,5.45
2023-01-19T00:54:37.566Z,5.57
2023-01-19T00:57:04.126Z,5.35
2023-01-19T00:59:30.693Z,5.35
2023-01-19T01:01:57.445Z,5.63
2023-01-19T01:04:24.145Z,5.15
2023-01-19T01:06:50.663Z,5.35
2023-01-19T01:09:18.559Z,5.00
2023-01-19T01:11:45.135Z,5.20
2023-01-19T01:14:12.752Z,5.50
2023-01-19T01:16:39.460Z,5.30
2023-01-19T01:19:06.066Z,5.38
2023-01-19T01:21:32.655Z,5.57
2023-01-19T01:23:59.184Z,5.80
2023-01-19T01:26:27.835Z,5.50
2023-01-19T01:28:54.385Z,6.90
2023-01-19T01:31:21.084Z,6.63
2023-01-19T01:33:47.696Z,5.45
2023-01-19T01:36:14.428Z,5.45
2023-01-19T01:38:41.551Z,5.47
2023-01-19T01:41:08.873Z,5.53
2023-01-19T01:43:48.621Z,5.88
2023-01-19T01:46:16.535Z,6.10
2023-01-19T01:48:49.182Z,6.30
2023-01-19T01:51:21.487Z,6.22
2023-01-19T01:53:51.646Z,5.75
2023-01-19T01:56:25.109Z,6.25
2023-01-19T01:58:53.529Z,6.60
2023-01-19T02:01:20.226Z,6.80
2023-01-19T02:03:46.917Z,6.15
2023-01-19T02:06:14.606Z,6.40
2023-01-19T02:08:46.487Z,6.65
2023-01-19T02:11:13.455Z,6.43
2023-01-19T02:13:42.470Z,6.18
2023-01-19T02:16:11.755Z,5.70
2023-01-19T02:18:38.819Z,6.25
2023-01-19T02:21:12.205Z,5.97
2023-01-19T02:23:43.335Z,5.72
2023-01-19T02:26:13.234Z,4.55
2023-01-19T02:28:43.682Z,6.35
2023-01-19T02:31:10.632Z,6.43
2023-01-19T02:33:37.712Z,6.50
2023-01-19T02:36:06.584Z,5.90
2023-01-19T02:38:33.745Z,5.28
2023-01-19T02:41:05.392Z,5.97
2023-01-19T02:43:33.092Z,6.70
2023-01-19T02:45:59.764Z,5.88
2023-01-19T02:48:26.501Z,7.07
2023-01-19T02:50:57.154Z,6.05
2023-01-19T02:53:45.411Z,6.15
2023-01-19T02:56:34.985Z,5.75
2023-01-19T02:59:06.737Z,6.32
2023-01-19T03:01:47.078Z,5.85
2023-01-19T03:04:24.641Z,6.82
2023-01-19T03:06:58.162Z,6.43
2023-01-19T03:09:32.339Z,6.82
2023-01-19T03:12:07.597Z,7.30
2023-01-19T03:14:40.468Z,6.95
2023-01-19T03:17:10.459Z,6.13
2023-01-19T03:19:40.830Z,7.40
2023-01-19T03:22:12.534Z,5.68
2023-01-19T03:24:42.653Z,5.55
2023-01-19T03:27:16.433Z,5.88
2023-01-19T03:29:48.271Z,6.45
2023-01-19T03:32:18.028Z,6.22
2023-01-19T03:34:47.901Z,5.25
2023-01-19T03:37:16.663Z,6.13
2023-01-19T03:39:43.475Z,6.18
2023-01-19T03:42:15.188Z,5.95
2023-01-19T03:44:44.274Z,5.78
2023-01-19T03:47:13.277Z,6.13
2023-01-19T03:49:43.033Z,5.68
2023-01-19T03:52:10.071Z,6.50
2023-01-19T03:54:36.872Z,5.35
2023-01-19T03:57:03.766Z,5.72
2023-01-19T03:59:31.704Z,5.70
2023-01-19T04:01:58.327Z,6.22
2023-01-19T04:04:25.225Z,5.07
2023-01-19T04:06:51.805Z,5.45
2023-01-19T04:09:20.002Z,5.55
2023-01-19T04:11:46.847Z,5.03
2023-01-19T04:14:13.387Z,5.60
2023-01-19T04:16:41.261Z,4.55
2023-01-19T04:19:07.768Z,5.45
2023-01-19T04:21:34.357Z,5.57
2023-01-19T04:24:00.891Z,5.63
2023-01-19T04:26:27.411Z,4.90
2023-01-19T04:28:54.143Z,5.30
2023-01-19T04:31:20.760Z,5.22
2023-01-19T04:33:48.963Z,5.18
2023-01-19T04:36:15.572Z,5.88
2023-01-19T04:38:42.181Z,6.07
2023-01-19T04:41:08.783Z,5.18
2023-01-19T04:43:35.372Z,6.20
2023-01-19T04:46:01.954Z,7.55
2023-01-19T04:48:28.466Z,6.20
2023-01-19T04:50:56.357Z,5.88
2023-01-19T04:53:22.895Z,7.38
2023-01-19T04:55:53.061Z,6.93
2023-01-19T04:58:19.656Z,7.38
2023-01-19T05:00:46.209Z,7.32
2023-01-19T05:03:12.756Z,7.28
2023-01-19T05:05:39.438Z,6.35
2023-01-19T05:08:07.603Z,7.13
2023-01-19T05:10:34.103Z,5.47
2023-01-19T05:13:01.000Z,5.28
2023-01-19T05:15:27.892Z,5.43
2023-01-19T05:17:54.529Z,4.55
2023-01-19T05:20:21.073Z,5.25
2023-01-19T05:22:51.095Z,4.90
2023-01-19T05:25:19.469Z,4.88
2023-01-19T05:27:46.111Z,4.85
2023-01-19T05:30:13.440Z,5.28
2023-01-19T05:32:40.133Z,4.53
2023-01-19T05:35:08.139Z,5.43
2023-01-19T05:37:34.687Z,5.25
2023-01-19T05:40:01.222Z,4.65
2023-01-19T05:42:30.837Z,5.55
2023-01-19T05:44:58.657Z,5.50
2023-01-19T05:47:25.276Z,4.90
2023-01-19T05:49:51.904Z,4.82
2023-01-19T05:52:18.479Z,5.28
2023-01-19T05:54:45.064Z,4.55
2023-01-19T05:57:11.606Z,5.35
2023-01-19T05:59:39.642Z,4.80
2023-01-19T06:02:06.467Z,5.05
2023-01-19T06:04:33.035Z,5.20
2023-01-19T06:06:59.624Z,5.07
2023-01-19T06:09:26.232Z,4.85
2023-01-19T06:11:52.806Z,4.95
2023-01-19T06:14:21.802Z,5.40
2023-01-19T06:16:49.733Z,4.53
2023-01-19T06:19:16.325Z,4.75
2023-01-19T06:21:42.863Z,5.25
2023-01-19T06:24:09.570Z,5.78
2023-01-19T06:26:36.109Z,6.05
2023-01-19T06:29:02.902Z,6.28
2023-01-19T06:31:29.415Z,5.50
2023-01-19T06:33:57.432Z,5.93
2023-01-19T06:36:24.021Z,5.65
2023-01-19T06:38:50.704Z,6.82
2023-01-19T06:41:17.315Z,6.20
2023-01-19T06:43:43.908Z,6.10
2023-01-19T06:46:10.502Z,5.57
2023-01-19T06:48:37.170Z,5.30
2023-01-19T06:51:05.398Z,5.43
2023-01-19T06:53:32.135Z,5.53
2023-01-19T06:55:59.593Z,6.28
2023-01-19T06:58:27.215Z,6.10
2023-01-19T07:00:53.903Z,6.40
2023-01-19T07:03:22.478Z,6.63
2023-01-19T07:05:51.627Z,5.80
2023-01-19T07:08:19.653Z,6.32
2023-01-19T07:11:24.658Z,9.10
2023-01-19T07:13:33.276Z,8.98
2023-01-19T07:16:03.335Z,7.35
2023-01-19T07:18:30.070Z,12.93
2023-01-19T07:20:57.322Z,10.70
2023-01-19T07:23:25.639Z,8.45
2023-01-19T07:25:52.158Z,6.93
2023-01-19T07:28:18.727Z,6.90
2023-01-19T07:30:45.554Z,6.57
2023-01-19T07:33:12.599Z,6.60
2023-01-19T07:35:39.111Z,6.35
2023-01-19T07:38:05.825Z,6.95
2023-01-19T07:40:33.761Z,6.57
2023-01-19T07:43:00.650Z,6.25
2023-01-19T07:45:28.019Z,6.63
2023-01-19T07:47:54.657Z,7.05
2023-01-19T07:50:21.481Z,6.38
2023-01-19T07:52:48.155Z,11.55
2023-01-19T07:55:14.712Z,11.60
2023-01-19T07:57:42.655Z,9.60
2023-01-19T08:00:10.522Z,6.57
2023-01-19T08:02:40.152Z,6.47
2023-01-19T08:05:07.116Z,8.73
2023-01-19T08:07:34.228Z,8.15
2023-01-19T08:10:00.860Z,9.40
2023-01-19T08:12:27.437Z,10.63
2023-01-19T08:14:55.325Z,8.85
2023-01-19T08:17:21.925Z,12.80
2023-01-19T08:19:48.440Z,8.65
2023-01-19T08:22:15.070Z,6.60
2023-01-19T08:24:41.702Z,6.63
2023-01-19T08:27:08.311Z,6.57
2023-01-19T08:29:35.221Z,7.38
2023-01-19T08:32:03.313Z,6.70
2023-01-19T08:34:29.890Z,8.82
2023-01-19T08:36:56.512Z,5.93
2023-01-19T08:39:22.995Z,6.22
2023-01-19T08:41:49.606Z,6.82
2023-01-19T08:44:16.607Z,5.88
2023-01-19T08:46:43.580Z,5.90
2023-01-19T08:49:11.757Z,6.32
2023-01-19T08:51:38.430Z,6.03
2023-01-19T08:54:05.387Z,6.55
2023-01-19T08:56:31.907Z,6.97
2023-01-19T08:59:08.693Z,6.32
2023-01-19T09:01:37.169Z,6.75
2023-01-19T09:04:04.112Z,6.00
2023-01-19T09:06:32.047Z,6.50
2023-01-19T09:08:58.561Z,7.68
2023-01-19T09:11:25.261Z,5.93
2023-01-19T09:13:51.755Z,6.40
2023-01-19T09:16:18.497Z,6.38
2023-01-19T09:18:45.084Z,6.57
2023-01-19T09:21:12.487Z,6.22
2023-01-19T09:23:40.420Z,6.28
2023-01-19T09:26:07.221Z,5.43
2023-01-19T09:28:33.860Z,6.40
2023-01-19T09:31:04.858Z,5.10
2023-01-19T09:33:31.538Z,6.47
2023-01-19T09:35:58.123Z,4.20
2023-01-19T09:38:24.861Z,5.32
2023-01-19T09:40:55.153Z,6.03
2023-01-19T09:43:37.677Z,7.07
2023-01-19T09:46:10.764Z,5.57
2023-01-19T09:48:45.718Z,6.50
2023-01-19T09:51:15.939Z,11.02
2023-01-19T09:53:50.751Z,7.15
2023-01-19T09:56:20.311Z,8.40
2023-01-19T09:58:48.149Z,11.38
2023-01-19T10:01:28.445Z,10.20
2023-01-19T10:04:12.366Z,7.93
2023-01-19T10:06:39.096Z,8.40
2023-01-19T10:09:14.702Z,8.77
2023-01-19T10:11:53.565Z,6.95
2023-01-19T10:14:30.419Z,6.13
2023-01-19T10:17:07.233Z,6.32
2023-01-19T10:19:38.247Z,7.25
2023-01-19T10:22:20.044Z,6.07
2023-01-19T10:24:48.522Z,5.93
2023-01-19T10:27:19.007Z,6.53
2023-01-19T10:29:47.423Z,7.00
2023-01-19T10:32:16.330Z,6.18
2023-01-19T10:34:43.206Z,5.78
2023-01-19T10:37:22.516Z,5.25
2023-01-19T10:39:54.108Z,4.75
2023-01-19T10:42:22.276Z,4.72
2023-01-19T10:44:49.620Z,4.63
2023-01-19T10:47:18.588Z,5.20
2023-01-19T10:49:46.344Z,4.90
2023-01-19T10:52:22.685Z,5.93
2023-01-19T10:54:49.560Z,6.07
2023-01-19T10:57:26.403Z,6.93
2023-01-19T10:59:53.219Z,6.63
2023-01-19T11:02:22.513Z,6.10
2023-01-19T11:04:51.773Z,18.08
2023-01-19T11:07:21.294Z,7.78
2023-01-19T11:09:48.785Z,6.95
2023-01-19T11:12:20.598Z,7.43
2023-01-19T11:14:50.415Z,15.85
2023-01-19T11:17:20.557Z,6.50
2023-01-19T11:19:55.685Z,6.93
2023-01-19T11:22:26.839Z,6.68
2023-01-19T11:24:58.901Z,6.07
2023-01-19T11:27:26.407Z,6.45
2023-01-19T11:30:01.642Z,6.20
2023-01-19T11:32:28.252Z,5.80
2023-01-19T11:34:54.774Z,6.32
2023-01-19T11:37:30.088Z,6.85
2023-01-19T11:39:58.833Z,6.25
2023-01-19T11:42:27.899Z,5.90
2023-01-19T11:45:01.774Z,5.53
2023-01-19T11:47:33.124Z,5.93
2023-01-19T11:50:05.839Z,5.05
2023-01-19T11:52:35.768Z,5.40
2023-01-19T11:55:06.976Z,5.25
2023-01-19T11:57:33.791Z,5.50
2023-01-19T12:00:17.384Z,5.63
2023-01-19T12:02:46.772Z,6.85
2023-01-19T12:05:18.111Z,6.97
2023-01-19T12:07:46.515Z,7.63
2023-01-19T12:10:23.855Z,9.32
2023-01-19T12:12:52.029Z,7.10
2023-01-19T12:15:30.258Z,8.82
2023-01-19T12:18:00.762Z,8.07
2023-01-19T12:20:31.498Z,7.82
2023-01-19T12:23:07.115Z,7.47
2023-01-19T12:25:47.411Z,7.07
2023-01-19T12:28:16.750Z,5.80
2023-01-19T12:30:44.765Z,6.10
2023-01-19T12:33:22.660Z,6.43
2023-01-19T12:35:57.693Z,7.38
2023-01-19T12:38:46.579Z,7.07
2023-01-19T12:41:26.566Z,7.32
2023-01-19T12:44:29.578Z,6.65
2023-01-19T12:46:59.432Z,7.03
2023-01-19T12:49:29.436Z,6.47
2023-01-19T12:52:23.763Z,5.70
2023-01-19T12:54:56.290Z,6.75
2023-01-19T12:57:27.098Z,6.90
2023-01-19T12:59:58.950Z,7.20
2023-01-19T13:02:51.970Z,9.77
2023-01-19T13:05:48.115Z,8.32
2023-01-19T13:08:22.705Z,7.90
2023-01-19T13:11:20.444Z,8.85
2023-01-19T13:14:26.349Z,9.45
2023-01-19T13:17:00.202Z,6.82
2023-01-19T13:19:47.536Z,7.18
2023-01-19T13:22:49.247Z,6.82
2023-01-19T13:25:27.669Z,6.63
2023-01-19T13:27:55.046Z,6.20
2023-01-19T13:30:26.438Z,6.60
2023-01-19T13:32:55.588Z,7.95
2023-01-19T13:35:24.341Z,7.70
2023-01-19T13:37:51.780Z,6.90
2023-01-19T13:40:22.523Z,7.82
2023-01-19T13:42:51.302Z,8.38
2023-01-19T13:45:31.443Z,8.18
2023-01-19T13:48:00.120Z,7.18
2023-01-19T13:50:29.811Z,8.57
2023-01-19T13:52:56.840Z,7.03
2023-01-19T13:55:24.355Z,8.88
2023-01-19T13:57:52.261Z,6.55
2023-01-19T14:00:21.027Z,6.40
2023-01-19T14:02:54.844Z,6.68
2023-01-19T14:05:23.927Z,7.25
2023-01-19T14:08:04.872Z,5.35
2023-01-19T14:10:31.694Z,10.98
2023-01-19T14:12:59.834Z,6.95
2023-01-19T14:15:26.740Z,6.20
2023-01-19T14:18:09.452Z,5.97
2023-01-19T14:20:36.118Z,5.80
2023-01-19T14:23:04.684Z,7.57
2023-01-19T14:25:32.915Z,6.22
2023-01-19T14:28:28.319Z,6.32
2023-01-19T14:30:56.762Z,5.63
2023-01-19T14:33:36.690Z,6.22
2023-01-19T14:36:28.723Z,6.57
2023-01-19T14:38:59.901Z,6.65
2023-01-19T14:41:32.764Z,6.50
2023-01-19T14:44:00.110Z,6.20
2023-01-19T14:46:26.808Z,7.30
2023-01-19T14:48:59.107Z,6.82
2023-01-19T14:51:27.401Z,5.70
2023-01-19T14:53:58.623Z,6.65
2023-01-19T14:56:28.841Z,6.05
2023-01-19T14:58:56.128Z,6.72
2023-01-19T15:01:22.941Z,5.43
2023-01-19T15:03:49.633Z,5.32
2023-01-19T15:06:18.937Z,6.20
2023-01-19T15:08:46.600Z,5.75
2023-01-19T15:11:23.568Z,6.43
2023-01-19T15:13:51.625Z,6.75
2023-01-19T15:16:18.862Z,6.43
2023-01-19T15:18:45.697Z,6.88
2023-01-19T15:21:14.531Z,8.15
2023-01-19T15:23:41.551Z,7.40
2023-01-19T15:26:13.881Z,7.38
2023-01-19T15:28:40.462Z,6.03
2023-01-19T15:31:13.451Z,5.75
2023-01-19T15:33:40.041Z,5.43
2023-01-19T15:36:12.245Z,5.15
2023-01-19T15:38:39.023Z,5.55
2023-01-19T15:41:12.058Z,6.05
2023-01-19T15:43:38.612Z,6.80
2023-01-19T15:46:11.146Z,7.53
2023-01-19T15:48:37.681Z,7.30
2023-01-19T15:51:04.299Z,8.13
2023-01-19T15:53:30.831Z,7.90
2023-01-19T15:55:57.447Z,6.70
2023-01-19T15:58:24.685Z,5.90
2023-01-19T16:00:55.405Z,5.65
2023-01-19T16:03:23.702Z,5.38
2023-01-19T16:05:50.240Z,5.95
2023-01-19T16:08:17.123Z,5.70
2023-01-19T16:10:43.827Z,5.55
2023-01-19T16:13:11.242Z,5.38
2023-01-19T16:15:39.022Z,5.43
2023-01-19T16:18:06.110Z,6.53
2023-01-19T16:20:34.048Z,9.82
2023-01-19T16:23:14.416Z,8.10
2023-01-19T16:25:41.975Z,8.50
2023-01-19T16:28:08.607Z,8.63
2023-01-19T16:30:35.292Z,8.48
2023-01-19T16:33:02.131Z,6.95
2023-01-19T16:35:28.732Z,6.60
2023-01-19T16:37:56.568Z,6.10
2023-01-19T16:40:23.169Z,6.95
2023-01-19T16:42:49.691Z,5.85
2023-01-19T16:45:16.455Z,6.72
2023-01-19T16:47:42.997Z,6.25
2023-01-19T16:50:11.161Z,5.43
2023-01-19T16:52:38.188Z,5.80
2023-01-19T16:55:07.742Z,5.18
2023-01-19T16:57:34.244Z,6.05
2023-01-19T17:00:00.804Z,6.53
2023-01-19T17:02:27.636Z,7.03
2023-01-19T17:04:54.160Z,6.13
2023-01-19T17:07:20.672Z,5.90
2023-01-19T17:09:47.298Z,6.88
2023-01-19T17:12:15.128Z,7.10
2023-01-19T17:14:41.614Z,6.47
2023-01-19T17:17:08.205Z,5.80
2023-01-19T17:19:35.149Z,7.45
2023-01-19T17:22:01.698Z,5.60
2023-01-19T17:24:28.311Z,6.03
2023-01-19T17:26:54.878Z,6.30
2023-01-19T17:29:22.755Z,7.65
2023-01-19T17:31:54.049Z,7.35
2023-01-19T17:34:22.520Z,8.32
2023-01-19T17:36:50.295Z,8.07
2023-01-19T17:39:16.855Z,8.52
2023-01-19T17:41:43.387Z,8.20
2023-01-19T17:44:10.434Z,8.07
2023-01-19T17:46:38.871Z,8.20
2023-01-19T17:49:06.939Z,8.27
2023-01-19T17:51:34.087Z,12.02
2023-01-19T17:54:00.989Z,13.07
2023-01-19T17:56:30.072Z,11.77
2023-01-19T17:58:57.620Z,11.30
2023-01-19T18:01:25.662Z,9.77
2023-01-19T18:03:54.116Z,8.95
2023-01-19T18:06:21.112Z,10.13
2023-01-19T18:08:48.856Z,8.45
2023-01-19T18:11:17.824Z,8.50
2023-01-19T18:13:45.905Z,9.35
2023-01-19T18:16:16.230Z,11.70
2023-01-19T18:18:43.211Z,10.73
2023-01-19T18:21:13.014Z,11.45
2023-01-19T18:23:40.352Z,14.35
2023-01-19T18:26:08.721Z,13.40
2023-01-19T18:28:35.502Z,12.60
2023-01-19T18:31:06.184Z,10.95
2023-01-19T18:33:32.873Z,10.68
2023-01-19T18:35:59.662Z,10.18
2023-01-19T18:38:27.879Z,11.18
2023-01-19T18:41:01.776Z,9.95
2023-01-19T18:43:28.667Z,10.73
2023-01-19T18:45:55.352Z,11.50
2023-01-19T18:48:22.041Z,11.13
2023-01-19T18:50:48.567Z,10.35
2023-01-19T18:53:15.180Z,11.50
2023-01-19T18:55:52.028Z,9.73
2023-01-19T18:58:18.978Z,8.80
2023-01-19T19:00:45.584Z,8.55
2023-01-19T19:03:12.285Z,8.95
2023-01-19T19:05:39.493Z,9.27
2023-01-19T19:08:06.543Z,10.27
2023-01-19T19:10:33.174Z,11.30
2023-01-19T19:13:01.616Z,11.00
2023-01-19T19:15:28.164Z,11.10
2023-01-19T19:17:55.030Z,12.07
2023-01-19T19:20:21.636Z,10.45
2023-01-19T19:22:48.280Z,10.48
2023-01-19T19:25:15.052Z,12.27
2023-01-19T19:27:41.673Z,11.05
2023-01-19T19:30:11.832Z,11.38
2023-01-19T19:32:38.844Z,10.95
2023-01-19T19:35:06.148Z,11.02
2023-01-19T19:37:32.912Z,11.00
2023-01-19T19:39:59.423Z,11.73
2023-01-19T19:42:25.948Z,11.88
2023-01-19T19:44:52.447Z,10.80
2023-01-19T19:47:20.433Z,11.10
2023-01-19T19:49:47.156Z,10.82
2023-01-19T19:52:13.728Z,9.65
2023-01-19T19:54:40.260Z,9.52
2023-01-19T19:57:06.847Z,10.20
2023-01-19T19:59:33.364Z,8.80
2023-01-19T20:01:59.951Z,8.98
2023-01-19T20:04:27.938Z,11.75
2023-01-19T20:06:54.543Z,11.60
2023-01-19T20:09:21.048Z,13.30
2023-01-19T20:11:47.621Z,15.00
2023-01-19T20:14:15.233Z,17.25
2023-01-19T20:16:42.435Z,14.95
2023-01-19T20:19:09.477Z,15.10
2023-01-19T20:21:39.495Z,14.70
2023-01-19T20:24:08.347Z,14.68
2023-01-19T20:26:39.354Z,13.55
2023-01-19T20:29:06.218Z,16.37
2023-01-19T20:31:35.518Z,14.13
2023-01-19T20:34:04.716Z,14.68
2023-01-19T20:36:31.763Z,14.75
2023-01-19T20:38:59.834Z,19.80
2023-01-19T20:41:26.776Z,15.65
2023-01-19T20:43:53.541Z,15.73
2023-01-19T20:46:20.086Z,24.27
2023-01-19T20:48:46.667Z,23.23
2023-01-19T20:51:13.618Z,21.05
2023-01-19T20:53:41.438Z,17.52
2023-01-19T20:56:11.900Z,13.38
2023-01-19T20:58:38.958Z,13.93
2023-01-19T21:01:12.894Z,13.73
2023-01-19T21:03:40.352Z,14.45
2023-01-19T21:06:07.965Z,14.18
2023-01-19T21:08:35.007Z,16.00
2023-01-19T21:11:01.849Z,17.73
2023-01-19T21:13:29.814Z,15.88
2023-01-19T21:15:56.378Z,16.90
2023-01-19T21:18:22.989Z,16.50
2023-01-19T21:20:49.788Z,14.10
2023-01-19T21:23:16.610Z,17.02
2023-01-19T21:25:48.598Z,17.00
2023-01-19T21:30:42.923Z,9.93
2023-01-19T21:33:09.700Z,8.95
2023-01-19T21:35:36.623Z,8.60
2023-01-19T21:38:03.245Z,8.73
2023-01-19T21:40:29.772Z,9.07
2023-01-19T21:42:56.368Z,8.30
2023-01-19T21:45:23.403Z,9.02
2023-01-19T21:47:51.414Z,8.73
2023-01-19T21:50:18.138Z,8.73
2023-01-19T21:52:44.841Z,9.93
2023-01-19T21:55:11.646Z,12.65
2023-01-19T21:57:38.432Z,14.02
2023-01-19T22:00:06.459Z,13.13
2023-01-19T22:02:38.821Z,15.15
2023-01-19T22:05:08.104Z,12.50
2023-01-19T22:07:34.656Z,14.00
2023-01-19T22:10:01.348Z,12.23
2023-01-19T22:12:28.152Z,11.88
2023-01-19T22:14:54.764Z,11.82
2023-01-19T22:17:21.283Z,12.80
2023-01-19T22:19:48.440Z,10.93
2023-01-19T22:22:16.356Z,11.48
2023-01-19T22:24:42.942Z,11.00
2023-01-19T22:27:09.464Z,9.48
2023-01-19T22:29:36.103Z,10.00
2023-01-19T22:32:02.666Z,10.52
2023-01-19T22:34:29.495Z,10.80
2023-01-19T22:36:56.000Z,10.88
2023-01-19T22:39:24.071Z,11.10
2023-01-19T22:41:50.748Z,10.52
2023-01-19T22:44:19.289Z,10.07
2023-01-19T22:46:45.845Z,8.85
2023-01-19T22:49:14.276Z,9.93
2023-01-19T22:51:41.810Z,9.70
2023-01-19T22:54:08.854Z,10.30
2023-01-19T22:56:38.996Z,10.30
2023-01-19T22:59:06.695Z,8.95
2023-01-19T23:01:35.825Z,9.48
2023-01-19T23:04:03.257Z,10.00
2023-01-19T23:06:31.653Z,10.80
2023-01-19T23:09:00.168Z,9.85
2023-01-19T23:11:28.420Z,8.93
2023-01-19T23:13:57.597Z,8.45
2023-01-19T23:16:24.209Z,9.40
2023-01-19T23:18:53.052Z,8.75
2023-01-19T23:21:21.229Z,9.25
2023-01-19T23:23:47.915Z,8.55
2023-01-19T23:26:16.899Z,8.73
2023-01-19T23:28:44.450Z,9.27
2023-01-19T23:31:16.963Z,8.98
2023-01-19T23:33:44.341Z,8.05
2023-01-19T23:36:11.790Z,7.93
2023-01-19T23:38:38.796Z,8.52
2023-01-19T23:41:05.717Z,8.00
2023-01-19T23:43:32.405Z,7.78
2023-01-19T23:46:02.490Z,8.77
2023-01-19T23:48:30.544Z,7.38
2023-01-19T23:50:57.079Z,8.05
2023-01-19T23:53:23.738Z,8.35
2023-01-19T23:55:50.257Z,8.82
2023-01-19T23:58:16.841Z,7.97
